Time;durP1;ratioP1;P1;durP2;ratioP2;P2;SDS_P1;SDS_P2;PMS_P1;PMS_P2;Temp;Humidity;BMP_temperature;BMP_pressure;BME280_temperature;BME280_humidity;BME280_pressure;Samples;Min_cycle;Max_cycle;Signal;HPM_P1;HPM_P2
2022/10/01 00:01:59;;;;;;;7.53;0.95;;;20.60;99.90;;;;;;5087530;28;20391;-82
2022/10/01 00:04:27;;;;;;;6.45;1.60;;;21.30;99.90;;;;;;5068364;28;20024;-79
2022/10/01 00:06:58;;;;;;;3.75;1.13;;;21.90;99.50;;;;;;5089255;28;20032;-84
2022/10/01 00:09:26;;;;;;;4.28;0.60;;;22.20;98.60;;;;;;5069851;28;20032;-81
2022/10/01 00:11:53;;;;;;;4.25;0.68;;;22.50;97.30;;;;;;5072170;28;20086;-80
2022/10/01 00:14:20;;;;;;;2.47;0.57;;;22.80;97.00;;;;;;5065084;28;20111;-81
2022/10/01 00:16:48;;;;;;;2.88;0.30;;;23.20;97.40;;;;;;5065866;28;20288;-80
2022/10/01 00:19:15;;;;;;;1.67;0.65;;;23.80;95.50;;;;;;5061288;28;20116;-82
2022/10/01 00:21:43;;;;;;;3.42;0.40;;;23.80;95.40;;;;;;5062314;28;20021;-81
2022/10/01 00:24:13;;;;;;;2.55;0.82;;;23.50;94.80;;;;;;5067633;28;20498;-83
2022/10/01 00:26:44;;;;;;;3.15;0.70;;;23.20;94.70;;;;;;5064077;28;20487;-80
2022/10/01 00:29:15;;;;;;;3.75;1.15;;;22.60;94.30;;;;;;5059006;28;20032;-79
2022/10/01 00:31:42;;;;;;;2.45;0.40;;;22.00;95.30;;;;;;5061131;28;20415;-80
2022/10/01 00:34:14;;;;;;;2.88;0.50;;;21.50;95.70;;;;;;5053512;28;20040;-79
2022/10/01 00:36:41;;;;;;;2.67;0.60;;;20.60;95.90;;;;;;5051856;28;20112;-79
2022/10/01 00:39:11;;;;;;;3.67;1.00;;;20.00;97.00;;;;;;5051139;28;20091;-79
2022/10/01 00:41:38;;;;;;;5.15;0.65;;;19.00;97.70;;;;;;5055661;28;20051;-80
2022/10/01 00:44:34;;;;;;;5.10;0.60;;;18.40;99.80;;;;;;5061876;28;20028;-77
2022/10/01 00:47:32;;;;;;;4.77;0.50;;;17.90;99.60;;;;;;5056445;28;20040;-78
2022/10/01 00:50:15;;;;;;;4.78;1.08;;;17.70;99.90;;;;;;5046559;28;20514;-78
2022/10/01 00:52:48;;;;;;;4.97;0.98;;;17.60;99.90;;;;;;5049956;28;20121;-77
2022/10/01 00:55:37;;;;;;;4.55;0.60;;;17.80;99.90;;;;;;5055901;28;20063;-78
2022/10/01 00:58:06;;;;;;;6.35;0.57;;;17.90;99.90;;;;;;5051352;28;20028;-77
2022/10/01 01:00:35;;;;;;;2.20;0.63;;;18.20;99.90;;;;;;5052997;28;20045;-77
2022/10/01 01:03:04;;;;;;;5.60;0.63;;;18.60;99.90;;;;;;5054117;28;20048;-78
2022/10/01 01:05:31;;;;;;;3.80;0.57;;;19.10;99.90;;;;;;5052641;28;20028;-78
2022/10/01 01:08:00;;;;;;;2.95;0.70;;;19.40;99.70;;;;;;5050907;28;20029;-78
2022/10/01 01:10:34;;;;;;;3.22;0.85;;;19.70;98.90;;;;;;5055710;28;20471;-78
2022/10/01 01:13:25;;;;;;;3.90;1.30;;;20.00;98.50;;;;;;5053288;28;20029;-77
2022/10/01 01:16:33;;;;;;;1.30;0.40;;;20.10;98.40;;;;;;5052870;28;20032;-78
2022/10/01 01:19:12;;;;;;;5.93;0.43;;;20.30;98.00;;;;;;5029361;28;20071;-78
2022/10/01 01:21:47;;;;;;;4.05;0.43;;;20.20;97.40;;;;;;5051582;28;20068;-77
2022/10/01 01:24:47;;;;;;;5.00;0.65;;;20.10;97.50;;;;;;5051275;28;20907;-78
2022/10/01 01:27:32;;;;;;;4.38;0.70;;;19.80;97.50;;;;;;5071109;28;20032;-78
2022/10/01 01:30:10;;;;;;;3.35;1.65;;;19.60;98.00;;;;;;5067644;28;20451;-78
2022/10/01 01:33:10;;;;;;;2.90;0.70;;;19.40;98.40;;;;;;5059250;28;20044;-77
2022/10/01 01:35:48;;;;;;;4.38;0.35;;;19.10;98.20;;;;;;5057650;28;21674;-77
2022/10/01 01:38:21;;;;;;;4.47;0.50;;;18.90;97.90;;;;;;5068449;28;20028;-78
2022/10/01 01:40:51;;;;;;;3.05;0.70;;;18.80;98.10;;;;;;5053898;28;20090;-78
2022/10/01 01:43:26;;;;;;;4.68;0.85;;;18.70;99.70;;;;;;5055387;28;20028;-78
2022/10/01 01:45:53;;;;;;;3.88;0.85;;;18.60;99.90;;;;;;5044758;28;20127;-78
2022/10/01 01:48:23;;;;;;;4.63;1.05;;;18.60;99.90;;;;;;5052327;28;20038;-78
2022/10/01 01:51:04;;;;;;;4.22;0.63;;;18.60;99.90;;;;;;5056374;28;20016;-79
2022/10/01 01:53:31;;;;;;;3.67;0.90;;;18.60;99.90;;;;;;5053586;28;20037;-75
2022/10/01 01:55:59;;;;;;;6.85;1.67;;;18.60;99.90;;;;;;5050458;28;20025;-81
2022/10/01 01:58:28;;;;;;;4.75;0.70;;;18.80;99.90;;;;;;5049880;28;20033;-74
2022/10/01 02:00:55;;;;;;;3.75;1.17;;;19.00;99.90;;;;;;5064111;28;20063;-76
2022/10/01 02:03:27;;;;;;;7.95;1.00;;;19.30;99.90;;;;;;5053748;28;20052;-75
2022/10/01 02:06:21;;;;;;;5.22;0.90;;;19.40;99.90;;;;;;5050329;28;20024;-75
2022/10/01 02:09:10;;;;;;;1.17;0.38;;;19.50;99.90;;;;;;5065927;28;20107;-75
2022/10/01 02:11:48;;;;;;;2.75;0.50;;;19.60;99.90;;;;;;5064426;28;20133;-80
2022/10/01 02:14:34;;;;;;;6.07;1.48;;;19.80;99.90;;;;;;5050307;28;20013;-80
2022/10/01 02:17:20;;;;;;;5.20;1.13;;;19.80;99.90;;;;;;5052497;28;20471;-78
2022/10/01 02:19:50;;;;;;;;;;;19.50;99.90;;;;;;5049027;28;20105;-79
2022/10/01 02:22:32;;;;;;;3.17;1.02;;;19.20;99.90;;;;;;5068073;28;19955;-79
2022/10/01 02:25:03;;;;;;;2.70;0.40;;;18.90;99.90;;;;;;5048901;28;20507;-79
2022/10/01 02:27:40;;;;;;;4.82;0.40;;;18.60;99.90;;;;;;5049230;28;20036;-77
2022/10/01 02:30:10;;;;;;;2.92;0.50;;;18.40;99.90;;;;;;5058611;28;20108;-80
2022/10/01 02:32:40;;;;;;;5.93;1.05;;;18.10;99.90;;;;;;5058660;28;20040;-79
2022/10/01 02:35:11;;;;;;;3.67;0.50;;;17.90;99.90;;;;;;5068637;28;20037;-80
2022/10/01 02:37:42;;;;;;;3.88;0.70;;;17.90;99.90;;;;;;5063953;28;20060;-79
2022/10/01 02:40:14;;;;;;;2.92;0.95;;;17.80;99.90;;;;;;5055196;28;20068;-78
2022/10/01 02:42:55;;;;;;;4.13;0.93;;;17.90;99.90;;;;;;5064213;28;20055;-79
2022/10/01 02:45:25;;;;;;;5.55;0.80;;;17.90;99.90;;;;;;5062328;28;20029;-78
2022/10/01 02:48:03;;;;;;;2.45;0.40;;;18.20;99.90;;;;;;5055793;28;20273;-77
2022/10/01 02:50:42;;;;;;;2.05;0.43;;;18.40;99.90;;;;;;5068485;28;20459;-77
2022/10/01 02:53:35;;;;;;;4.65;0.50;;;18.50;99.90;;;;;;5058250;28;20459;-78
2022/10/01 02:56:04;;;;;;;3.53;0.32;;;18.70;99.90;;;;;;5062644;28;20047;-77
2022/10/01 02:58:31;;;;;;;3.20;0.40;;;18.90;98.40;;;;;;5066551;28;20107;-77
2022/10/01 03:00:58;;;;;;;4.75;0.50;;;18.90;96.50;;;;;;5066024;28;20068;-78
2022/10/01 03:03:26;;;;;;;4.55;0.68;;;18.90;95.90;;;;;;5061546;28;20056;-80
2022/10/01 03:05:53;;;;;;;4.63;0.82;;;19.00;95.90;;;;;;5070105;28;20028;-77
2022/10/01 03:08:21;;;;;;;3.10;0.57;;;19.10;95.80;;;;;;5065192;28;20020;-78
2022/10/01 03:10:49;;;;;;;1.13;0.40;;;19.30;95.90;;;;;;5067877;28;20024;-77
2022/10/01 03:13:18;;;;;;;2.35;0.40;;;19.40;96.10;;;;;;5059700;28;20055;-78
2022/10/01 03:15:48;;;;;;;2.92;0.50;;;19.20;96.30;;;;;;5062988;28;20027;-77
2022/10/01 03:18:16;;;;;;;4.70;0.40;;;18.80;96.50;;;;;;5069111;28;20063;-79
2022/10/01 03:20:43;;;;;;;0.70;0.20;;;18.80;96.80;;;;;;5072506;28;20064;-78
2022/10/01 03:23:10;;;;;;;2.10;0.30;;;18.90;96.70;;;;;;5056620;28;20023;-79
2022/10/01 03:25:37;;;;;;;4.47;0.60;;;18.90;96.40;;;;;;5059678;28;20093;-79
2022/10/01 03:28:05;;;;;;;3.58;0.60;;;18.90;96.10;;;;;;5061649;28;20052;-79
2022/10/01 03:30:33;;;;;;;1.10;0.35;;;18.90;95.90;;;;;;5053466;28;20035;-79
2022/10/01 03:33:00;;;;;;;2.50;0.68;;;19.10;96.10;;;;;;5053757;28;20045;-78
2022/10/01 03:35:27;;;;;;;4.70;0.90;;;19.30;96.30;;;;;;5069102;28;20020;-77
2022/10/01 03:37:55;;;;;;;2.50;0.50;;;19.40;95.50;;;;;;5047067;28;20510;-78
2022/10/01 03:40:24;;;;;;;2.17;0.45;;;19.40;94.50;;;;;;5063686;28;20037;-78
2022/10/01 03:42:51;;;;;;;1.60;0.60;;;19.90;94.70;;;;;;5071208;28;20037;-79
2022/10/01 03:45:18;;;;;;;3.47;0.70;;;20.70;94.20;;;;;;5071893;28;20517;-79
2022/10/01 03:47:52;;;;;;;2.97;0.57;;;21.00;94.10;;;;;;5070413;28;20051;-78
2022/10/01 03:50:20;;;;;;;4.07;0.60;;;21.10;93.80;;;;;;5056444;28;20115;-78
2022/10/01 03:52:50;;;;;;;3.67;0.50;;;20.70;93.10;;;;;;5070414;28;20021;-79
2022/10/01 03:55:18;;;;;;;2.33;0.52;;;20.20;94.90;;;;;;5051485;28;20086;-79
2022/10/01 03:57:45;;;;;;;2.63;0.57;;;19.40;98.60;;;;;;5063966;28;20032;-80
2022/10/01 04:00:13;;;;;;;3.05;0.77;;;18.70;99.90;;;;;;5063946;28;20387;-79
2022/10/01 04:02:40;;;;;;;3.70;0.50;;;18.00;99.90;;;;;;5066214;28;20516;-78
2022/10/01 04:05:08;;;;;;;2.05;0.30;;;17.70;99.90;;;;;;5071509;28;20029;-80
2022/10/01 04:07:35;;;;;;;3.20;0.43;;;17.50;99.90;;;;;;5066754;28;20059;-79
2022/10/01 04:10:03;;;;;;;1.50;0.50;;;17.40;99.90;;;;;;5064672;28;20029;-79
2022/10/01 04:12:30;;;;;;;2.40;0.60;;;17.30;99.90;;;;;;5071328;28;20025;-78
2022/10/01 04:14:57;;;;;;;1.83;0.25;;;17.30;99.90;;;;;;5053110;28;20037;-79
2022/10/01 04:17:25;;;;;;;4.25;0.40;;;17.30;99.90;;;;;;5060504;28;20086;-79
2022/10/01 04:19:52;;;;;;;4.75;0.85;;;17.30;99.90;;;;;;5081694;28;20041;-79
2022/10/01 04:22:20;;;;;;;1.58;0.98;;;17.20;99.90;;;;;;5067544;28;20040;-79
2022/10/01 04:24:47;;;;;;;1.95;0.52;;;17.30;99.90;;;;;;5052554;28;20082;-78
2022/10/01 04:27:14;;;;;;;1.92;0.30;;;17.30;99.90;;;;;;5055437;28;20021;-79
2022/10/01 04:29:42;;;;;;;1.95;0.40;;;17.40;99.90;;;;;;5052489;28;20063;-78
2022/10/01 04:32:09;;;;;;;2.80;0.68;;;17.50;99.90;;;;;;5051932;28;20095;-78
2022/10/01 04:34:51;;;;;;;7.72;0.30;;;17.50;99.90;;;;;;5066876;28;20442;-78
2022/10/01 04:37:20;;;;;;;4.32;0.90;;;17.60;99.90;;;;;;5071881;28;20024;-79
2022/10/01 04:39:47;;;;;;;3.22;1.02;;;17.60;99.90;;;;;;5064755;28;20049;-79
2022/10/01 04:42:15;;;;;;;1.98;0.30;;;17.40;99.90;;;;;;5052760;28;20032;-78
2022/10/01 04:44:42;;;;;;;4.65;0.68;;;17.30;99.90;;;;;;5059540;28;20376;-79
2022/10/01 04:47:09;;;;;;;1.92;0.60;;;17.10;99.90;;;;;;5052169;28;20025;-80
2022/10/01 04:49:37;;;;;;;1.50;0.30;;;16.90;99.90;;;;;;5060378;28;20037;-79
2022/10/01 04:52:05;;;;;;;2.22;1.00;;;16.70;99.90;;;;;;5055129;28;20031;-79
2022/10/01 04:54:32;;;;;;;5.00;1.95;;;16.60;99.90;;;;;;5065912;28;20032;-79
2022/10/01 04:56:59;;;;;;;5.80;1.88;;;16.50;99.90;;;;;;5070855;28;20473;-78
2022/10/01 04:59:27;;;;;;;4.70;1.50;;;16.50;99.90;;;;;;5066589;28;20040;-79
2022/10/01 05:01:54;;;;;;;6.15;1.30;;;16.50;99.90;;;;;;5065669;28;20064;-79
2022/10/01 05:04:22;;;;;;;4.55;0.60;;;16.40;99.90;;;;;;5062331;28;20613;-79
2022/10/01 05:06:49;;;;;;;1.52;0.90;;;16.50;99.90;;;;;;5051412;28;20479;-78
2022/10/01 05:09:17;;;;;;;3.50;0.50;;;16.60;99.90;;;;;;5058280;28;20080;-79
2022/10/01 05:11:44;;;;;;;3.88;0.60;;;16.70;99.90;;;;;;5067374;28;20054;-78
2022/10/01 05:14:15;;;;;;;2.53;0.35;;;16.70;99.90;;;;;;5058465;28;20025;-79
2022/10/01 05:16:42;;;;;;;3.70;0.70;;;16.80;99.90;;;;;;5064933;28;20032;-79
2022/10/01 05:19:09;;;;;;;4.32;0.73;;;16.80;99.90;;;;;;5053028;28;20468;-79
2022/10/01 05:21:37;;;;;;;2.95;0.47;;;16.70;99.90;;;;;;5050620;28;20436;-80
2022/10/01 05:24:04;;;;;;;4.10;0.45;;;16.80;99.90;;;;;;5058305;28;20024;-79
2022/10/01 05:26:32;;;;;;;2.05;0.75;;;16.90;99.90;;;;;;5051079;28;20028;-79
2022/10/01 05:29:00;;;;;;;6.10;0.60;;;16.90;99.90;;;;;;5063144;28;20455;-78
2022/10/01 05:31:27;;;;;;;2.30;0.60;;;16.90;99.90;;;;;;5056396;28;20468;-78
2022/10/01 05:33:54;;;;;;;1.83;0.30;;;16.90;99.90;;;;;;5052187;28;20657;-78
2022/10/01 05:36:22;;;;;;;4.80;0.40;;;16.80;99.90;;;;;;5051645;28;20021;-78
2022/10/01 05:38:51;;;;;;;2.50;0.40;;;16.60;99.90;;;;;;5050907;28;20085;-80
2022/10/01 05:41:19;;;;;;;0.93;0.25;;;16.60;99.90;;;;;;5052104;28;20094;-78
2022/10/01 05:43:48;;;;;;;1.90;0.30;;;16.60;99.90;;;;;;5051146;28;20029;-77
2022/10/01 05:46:15;;;;;;;1.63;0.30;;;16.60;99.90;;;;;;5052978;28;20136;-78
2022/10/01 05:48:43;;;;;;;2.13;0.60;;;16.70;99.90;;;;;;5055531;28;20748;-78
2022/10/01 05:51:15;;;;;;;3.47;0.63;;;16.80;99.90;;;;;;5051323;28;20156;-79
2022/10/01 05:53:42;;;;;;;4.10;1.00;;;16.90;99.90;;;;;;5057343;28;20483;-77
2022/10/01 05:56:10;;;;;;;4.45;0.65;;;17.10;99.90;;;;;;5049948;28;20047;-79
2022/10/01 05:58:37;;;;;;;4.47;0.80;;;17.20;99.90;;;;;;5051156;28;20379;-78
2022/10/01 06:01:04;;;;;;;6.53;0.63;;;17.30;99.90;;;;;;5048766;28;20040;-78
2022/10/01 06:03:32;;;;;;;5.68;0.40;;;17.40;99.90;;;;;;5045423;28;20064;-77
2022/10/01 06:05:59;;;;;;;2.97;0.40;;;17.40;99.90;;;;;;5048428;28;20505;-77
2022/10/01 06:08:27;;;;;;;4.78;0.60;;;17.50;99.90;;;;;;5058901;28;20032;-76
2022/10/01 06:11:00;;;;;;;3.92;0.47;;;17.50;99.90;;;;;;5072745;28;20030;-79
2022/10/01 06:13:28;;;;;;;3.53;0.57;;;17.40;99.90;;;;;;5057256;28;20477;-77
2022/10/01 06:15:55;;;;;;;8.90;1.60;;;17.30;99.90;;;;;;5053944;28;20029;-77
2022/10/01 06:18:23;;;;;;;5.38;0.75;;;17.30;99.90;;;;;;5065373;28;20024;-77
2022/10/01 06:20:50;;;;;;;3.83;0.75;;;17.20;99.90;;;;;;5072153;28;20036;-76
2022/10/01 06:23:17;;;;;;;1.45;0.20;;;17.10;99.90;;;;;;5062713;28;20491;-77
2022/10/01 06:25:45;;;;;;;0.85;0.30;;;17.00;99.30;;;;;;5072528;28;20102;-76
2022/10/01 06:28:13;;;;;;;3.80;1.02;;;16.90;99.00;;;;;;5073396;28;20028;-76
2022/10/01 06:30:41;;;;;;;3.45;0.50;;;16.80;99.50;;;;;;5069252;28;20036;-76
2022/10/01 06:33:14;;;;;;;0.82;0.32;;;16.90;99.50;;;;;;5064950;28;20090;-75
2022/10/01 06:35:51;;;;;;;0.82;0.60;;;16.90;99.70;;;;;;5057439;28;20037;-76
2022/10/01 06:38:21;;;;;;;5.05;1.00;;;16.90;99.40;;;;;;5055137;28;20031;-77
2022/10/01 06:40:59;;;;;;;3.92;0.25;;;16.70;99.50;;;;;;5055566;28;20047;-78
2022/10/01 06:43:28;;;;;;;4.00;0.80;;;16.70;99.90;;;;;;5069959;28;20115;-77
2022/10/01 06:45:56;;;;;;;2.38;0.32;;;16.50;99.90;;;;;;5061664;28;20025;-77
2022/10/01 06:48:23;;;;;;;1.17;0.68;;;16.40;99.90;;;;;;5068800;28;20427;-77
2022/10/01 06:50:51;;;;;;;0.80;0.30;;;16.20;99.90;;;;;;5066366;28;20035;-79
2022/10/01 06:53:19;;;;;;;4.32;0.82;;;16.20;99.90;;;;;;5070493;28;20616;-77
2022/10/01 06:55:48;;;;;;;2.42;0.60;;;16.10;99.90;;;;;;5061526;28;20033;-77
2022/10/01 06:58:26;;;;;;;2.15;0.38;;;16.10;99.90;;;;;;5059262;28;20029;-78
2022/10/01 07:01:00;;;;;;;2.78;0.40;;;16.00;99.90;;;;;;5071839;28;20039;-79
2022/10/01 07:03:28;;;;;;;3.42;0.40;;;15.90;99.90;;;;;;5062154;28;20867;-78
2022/10/01 07:06:04;;;;;;;4.45;0.57;;;15.80;99.90;;;;;;5063862;28;20056;-77
2022/10/01 07:08:32;;;;;;;3.50;0.63;;;15.70;99.90;;;;;;5068741;28;20033;-78
2022/10/01 07:11:03;;;;;;;7.38;1.08;;;15.70;99.90;;;;;;5070606;28;20090;-77
2022/10/01 07:13:31;;;;;;;2.13;0.50;;;15.70;99.90;;;;;;5065992;28;20031;-76
2022/10/01 07:15:58;;;;;;;5.85;0.50;;;15.60;99.90;;;;;;5062318;28;20116;-76
2022/10/01 07:18:26;;;;;;;3.60;0.40;;;15.50;99.90;;;;;;5058183;28;20452;-79
2022/10/01 07:20:55;;;;;;;3.33;0.60;;;15.50;99.90;;;;;;5072480;28;20071;-77
2022/10/01 07:23:26;;;;;;;4.88;1.30;;;15.40;99.90;;;;;;5061026;28;20463;-78
2022/10/01 07:25:53;;;;;;;2.60;0.50;;;15.40;99.90;;;;;;5051940;28;20037;-78
2022/10/01 07:28:24;;;;;;;3.35;0.60;;;15.30;99.90;;;;;;5059694;28;20035;-78
2022/10/01 07:31:03;;;;;;;2.22;0.90;;;15.20;99.90;;;;;;5066230;28;20020;-77
2022/10/01 07:33:31;;;;;;;5.90;1.08;;;15.20;99.90;;;;;;5055774;28;20539;-79
2022/10/01 07:36:03;;;;;;;3.85;1.60;;;15.20;99.90;;;;;;5059672;28;20033;-77
2022/10/01 07:38:34;;;;;;;5.68;0.68;;;15.10;99.90;;;;;;5057479;28;20033;-76
2022/10/01 07:41:02;;;;;;;4.45;0.88;;;15.10;99.90;;;;;;5062231;28;20126;-78
2022/10/01 07:43:31;;;;;;;3.42;0.77;;;15.10;99.90;;;;;;5057953;28;20032;-77
2022/10/01 07:45:58;;;;;;;13.95;10.75;;;15.10;99.90;;;;;;5073888;28;20398;-79
2022/10/01 07:48:27;;;;;;;9.40;7.45;;;15.10;99.90;;;;;;5056651;28;20017;-78
2022/10/01 07:50:58;;;;;;;6.38;2.85;;;15.00;99.90;;;;;;5088188;28;20032;-77
2022/10/01 07:53:26;;;;;;;2.70;1.08;;;15.00;99.90;;;;;;5072077;28;20024;-77
2022/10/01 07:55:53;;;;;;;5.07;3.22;;;14.90;99.90;;;;;;5069839;28;20032;-76
2022/10/01 07:58:22;;;;;;;2.30;1.90;;;14.90;99.90;;;;;;5060772;28;20190;-77
2022/10/01 08:00:54;;;;;;;2.72;0.82;;;14.80;99.90;;;;;;5057068;28;20041;-77
2022/10/01 08:03:22;;;;;;;2.13;0.68;;;14.80;99.90;;;;;;5054313;28;20025;-78
2022/10/01 08:05:51;;;;;;;5.18;0.98;;;14.80;99.90;;;;;;5055813;28;20361;-78
2022/10/01 08:08:19;;;;;;;2.47;1.13;;;14.80;99.90;;;;;;5051628;28;20020;-78
2022/10/01 08:10:48;;;;;;;4.32;1.17;;;14.80;99.90;;;;;;5055144;28;20024;-77
2022/10/01 08:13:17;;;;;;;3.20;0.82;;;14.80;99.90;;;;;;5052337;28;20024;-76
2022/10/01 08:15:48;;;;;;;2.78;0.90;;;14.70;99.90;;;;;;5051497;28;20071;-77
2022/10/01 08:18:16;;;;;;;2.40;1.15;;;14.70;99.90;;;;;;5057703;28;20540;-79
2022/10/01 08:20:43;;;;;;;5.05;0.63;;;14.60;99.90;;;;;;5056097;28;20123;-78
2022/10/01 08:23:13;;;;;;;3.05;0.82;;;14.50;99.90;;;;;;5052391;28;20027;-78
2022/10/01 08:25:42;;;;;;;3.28;0.60;;;14.40;99.90;;;;;;5054248;28;20042;-77
2022/10/01 08:28:11;;;;;;;3.58;0.47;;;14.30;99.90;;;;;;5052553;28;20387;-78
2022/10/01 08:30:39;;;;;;;0.50;0.30;;;14.30;99.90;;;;;;5053416;28;20032;-76
2022/10/01 08:33:09;;;;;;;3.63;1.13;;;14.20;99.90;;;;;;5055338;28;20524;-76
2022/10/01 08:35:39;;;;;;;5.57;1.35;;;14.10;99.90;;;;;;5063419;28;20037;-76
2022/10/01 08:38:08;;;;;;;2.42;0.57;;;14.00;99.90;;;;;;5052160;28;20032;-76
2022/10/01 08:40:48;;;;;;;1.95;0.75;;;13.90;99.90;;;;;;5050965;28;20501;-79
2022/10/01 08:43:29;;;;;;;4.60;0.95;;;13.80;99.90;;;;;;5058865;28;20100;-78
2022/10/01 08:46:00;;;;;;;2.50;0.90;;;13.70;99.90;;;;;;5054073;28;20021;-76
2022/10/01 08:48:39;;;;;;;2.03;0.52;;;13.70;99.90;;;;;;5052513;28;20021;-77
2022/10/01 08:51:51;;;;;;;1.35;0.60;;;13.60;99.90;;;;;;5052690;28;20028;-77
2022/10/01 08:54:46;;;;;;;2.28;0.65;;;13.50;99.90;;;;;;5056720;28;20027;-77
2022/10/01 08:57:20;;;;;;;1.95;0.88;;;13.40;99.90;;;;;;5061607;28;20102;-77
2022/10/01 09:00:00;;;;;;;5.88;2.65;;;13.40;99.90;;;;;;5058481;28;20039;-76
2022/10/01 09:02:37;;;;;;;5.97;2.65;;;13.30;99.90;;;;;;5065288;28;20050;-78
2022/10/01 09:05:23;;;;;;;13.65;7.53;;;13.30;99.90;;;;;;5070129;28;20483;-77
2022/10/01 09:08:02;;;;;;;34.28;17.35;;;13.20;99.90;;;;;;5067751;28;20059;-76
2022/10/01 09:10:30;;;;;;;17.58;7.40;;;13.10;99.90;;;;;;5049862;28;20143;-77
2022/10/01 09:13:10;;;;;;;3.58;2.00;;;13.10;99.90;;;;;;5051252;28;20483;-77
2022/10/01 09:15:49;;;;;;;11.90;2.22;;;13.10;99.90;;;;;;5059178;28;20044;-77
2022/10/01 09:18:19;;;;;;;4.05;1.00;;;13.10;99.90;;;;;;5054188;28;20024;-76
2022/10/01 09:20:52;;;;;;;1.50;0.52;;;13.10;99.90;;;;;;5051064;28;20041;-77
2022/10/01 09:23:49;;;;;;;2.75;1.30;;;13.10;99.90;;;;;;5051222;28;20570;-76
2022/10/01 09:26:17;;;;;;;4.05;1.33;;;13.10;99.90;;;;;;5054242;28;20047;-77
2022/10/01 09:28:50;;;;;;;4.38;1.30;;;13.10;99.90;;;;;;5040734;28;20024;-78
2022/10/01 09:31:37;;;;;;;3.45;1.40;;;13.00;99.90;;;;;;5066357;28;20059;-76
2022/10/01 09:34:19;;;;;;;3.67;1.27;;;13.00;99.90;;;;;;5049426;28;20131;-76
2022/10/01 09:37:08;;;;;;;2.70;1.40;;;12.90;99.90;;;;;;5055684;28;20169;-77
2022/10/01 09:40:03;;;;;;;5.28;1.65;;;12.90;99.90;;;;;;5051946;28;20052;-78
2022/10/01 09:42:31;;;;;;;4.50;1.80;;;12.80;99.90;;;;;;5055191;28;20036;-78
2022/10/01 09:44:59;;;;;;;4.47;1.88;;;12.70;99.90;;;;;;5049466;28;20029;-75
2022/10/01 09:47:27;;;;;;;4.00;0.90;;;12.70;99.90;;;;;;5058220;28;20029;-77
2022/10/01 09:49:54;;;;;;;4.60;1.10;;;12.70;99.90;;;;;;5056620;28;20032;-76
2022/10/01 09:52:33;;;;;;;4.93;1.23;;;12.60;99.90;;;;;;5049948;28;20050;-79
2022/10/01 09:55:04;;;;;;;7.18;4.82;;;12.50;99.90;;;;;;5052579;28;20036;-76
2022/10/01 09:57:45;;;;;;;11.38;7.20;;;12.50;99.90;;;;;;5056097;28;20062;-76
2022/10/01 10:00:21;;;;;;;19.13;12.95;;;12.50;99.90;;;;;;5052946;28;20037;-77
2022/10/01 10:02:54;;;;;;;22.83;16.70;;;12.40;99.90;;;;;;5050936;28;20033;-77
2022/10/01 10:05:28;;;;;;;16.65;12.07;;;12.40;99.90;;;;;;5061286;28;20066;-77
2022/10/01 10:08:23;;;;;;;10.00;8.60;;;12.40;99.90;;;;;;5062151;28;20107;-76
2022/10/01 10:11:02;;;;;;;12.48;8.13;;;12.30;99.90;;;;;;5047005;28;20041;-76
2022/10/01 10:13:37;;;;;;;12.07;9.57;;;12.30;99.90;;;;;;5062204;28;20035;-76
2022/10/01 10:16:28;;;;;;;13.23;9.40;;;12.30;99.90;;;;;;5063140;28;20024;-77
2022/10/01 10:19:14;;;;;;;10.95;8.07;;;12.30;99.90;;;;;;5047184;28;20128;-76
2022/10/01 10:21:52;;;;;;;;;;;12.30;99.90;;;;;;5061893;28;20127;-77
2022/10/01 10:24:25;;;;;;;4.75;4.32;;;12.30;99.90;;;;;;5065601;28;19969;-78
2022/10/01 10:26:55;;;;;;;8.20;4.50;;;12.30;99.90;;;;;;5053408;28;20095;-77
2022/10/01 10:29:36;;;;;;;7.55;5.47;;;12.20;99.90;;;;;;5055853;28;20468;-78
2022/10/01 10:32:27;;;;;;;5.43;4.28;;;12.20;99.90;;;;;;5050384;28;20033;-79
2022/10/01 10:35:03;;;;;;;7.65;4.82;;;12.10;99.90;;;;;;5053725;28;21569;-77
2022/10/01 10:37:36;;;;;;;10.23;7.22;;;12.10;99.90;;;;;;5057285;28;20536;-79
2022/10/01 10:40:07;;;;;;;14.45;8.98;;;12.10;99.90;;;;;;5058462;28;20029;-77
2022/10/01 10:42:37;;;;;;;9.50;5.80;;;12.00;99.90;;;;;;5065255;28;20028;-79
2022/10/01 10:45:16;;;;;;;6.07;3.15;;;12.00;99.90;;;;;;5054356;28;20029;-77
2022/10/01 10:47:47;;;;;;;9.10;3.10;;;12.00;99.90;;;;;;5058592;28;20036;-77
2022/10/01 10:50:28;;;;;;;8.30;2.60;;;12.00;99.90;;;;;;5050814;28;20021;-78
2022/10/01 10:52:56;;;;;;;3.45;0.80;;;11.90;99.90;;;;;;5051394;28;20032;-76
2022/10/01 10:55:31;;;;;;;2.38;0.80;;;11.90;99.90;;;;;;5056255;28;20032;-78
2022/10/01 10:58:24;;;;;;;1.63;1.02;;;11.90;99.90;;;;;;5063168;28;20555;-79
2022/10/01 11:00:52;;;;;;;2.97;1.33;;;11.90;99.90;;;;;;5056896;28;20055;-78
2022/10/01 11:03:24;;;;;;;5.03;0.98;;;11.80;99.90;;;;;;5056727;28;20021;-77
2022/10/01 11:05:55;;;;;;;1.70;0.75;;;11.80;99.90;;;;;;5038135;28;20446;-79
2022/10/01 11:08:27;;;;;;;2.80;0.60;;;11.70;99.90;;;;;;5058535;28;20088;-78
2022/10/01 11:11:32;;;;;;;2.65;0.80;;;11.70;99.90;;;;;;5066360;28;20489;-77
2022/10/01 11:14:11;;;;;;;3.95;0.52;;;11.80;99.90;;;;;;5052135;28;20383;-76
2022/10/01 11:17:13;;;;;;;4.07;0.82;;;11.80;99.90;;;;;;5058938;28;20020;-76
2022/10/01 11:19:58;;;;;;;2.33;0.70;;;11.80;99.90;;;;;;5062643;28;20494;-77
2022/10/01 11:22:56;;;;;;;2.25;0.80;;;11.80;99.90;;;;;;5057686;28;20035;-78
2022/10/01 11:25:47;;;;;;;2.00;1.15;;;11.80;99.90;;;;;;5067574;28;20032;-78
2022/10/01 11:28:17;;;;;;;3.25;1.10;;;11.80;99.90;;;;;;5059086;28;20029;-75
2022/10/01 11:31:26;;;;;;;1.58;0.98;;;11.70;99.90;;;;;;5063517;28;20104;-76
2022/10/01 11:34:25;;;;;;;4.72;0.73;;;11.70;99.90;;;;;;5058006;28;20083;-80
2022/10/01 11:37:10;;;;;;;1.20;0.50;;;11.70;99.90;;;;;;5058798;28;20037;-75
2022/10/01 11:39:42;;;;;;;1.83;0.85;;;11.70;99.90;;;;;;5060696;28;20036;-77
2022/10/01 11:42:26;;;;;;;3.10;0.80;;;11.60;99.90;;;;;;5060058;28;20232;-76
2022/10/01 11:45:20;;;;;;;2.75;0.88;;;11.70;99.90;;;;;;5056894;28;20025;-75
2022/10/01 11:48:14;;;;;;;2.03;1.08;;;11.70;99.90;;;;;;5056875;28;20044;-78
2022/10/01 11:50:50;;;;;;;4.55;0.90;;;11.70;99.90;;;;;;5027495;28;20043;-78
2022/10/01 11:53:49;;;;;;;2.38;1.20;;;11.70;99.90;;;;;;5077288;28;20535;-77
2022/10/01 11:59:48;;;;;;;1.88;0.80;;;11.80;99.90;;;;;;5059500;28;20086;-78
2022/10/01 12:02:27;;;;;;;1.33;0.98;;;11.80;99.90;;;;;;5080548;28;20409;-77
2022/10/01 12:05:22;;;;;;;3.17;1.33;;;11.90;99.90;;;;;;5077787;28;20695;-75
2022/10/01 12:08:28;;;;;;;1.35;0.50;;;11.90;99.90;;;;;;5084625;28;20035;-77
2022/10/01 12:11:27;;;;;;;4.47;1.00;;;11.90;99.90;;;;;;5088159;28;20055;-75
2022/10/01 12:14:15;;;;;;;5.55;1.45;;;11.90;99.90;;;;;;5057517;28;20067;-75
2022/10/01 12:17:08;;;;;;;3.92;0.93;;;12.00;99.90;;;;;;5057216;28;20036;-78
2022/10/01 12:19:45;;;;;;;1.23;0.52;;;12.00;99.90;;;;;;5055403;28;20130;-78
2022/10/01 12:22:29;;;;;;;1.65;0.82;;;12.00;99.90;;;;;;5062616;28;20032;-77
2022/10/01 12:24:57;;;;;;;2.70;0.90;;;12.00;99.90;;;;;;5060596;28;20052;-79
2022/10/01 12:27:55;;;;;;;2.88;0.57;;;12.00;99.90;;;;;;5056324;28;20411;-76
2022/10/01 12:30:28;;;;;;;0.70;0.40;;;11.90;99.90;;;;;;5055785;28;20032;-76
2022/10/01 12:33:03;;;;;;;3.40;0.77;;;11.90;99.90;;;;;;5060515;28;20049;-77
2022/10/01 12:36:02;;;;;;;1.27;0.40;;;11.80;99.90;;;;;;5049067;28;20025;-76
2022/10/01 12:38:54;;;;;;;2.85;0.60;;;11.80;99.90;;;;;;5054348;28;20110;-76
2022/10/01 12:41:37;;;;;;;1.63;0.50;;;11.80;99.90;;;;;;5054989;28;20037;-77
2022/10/01 12:44:19;;;;;;;3.15;0.57;;;11.70;99.90;;;;;;5055678;28;21138;-77
2022/10/01 12:47:10;;;;;;;1.70;0.55;;;11.70;99.90;;;;;;5060787;28;20040;-78
2022/10/01 12:49:55;;;;;;;1.13;0.55;;;11.70;99.90;;;;;;5056936;28;20425;-79
2022/10/01 12:52:42;;;;;;;0.65;0.35;;;11.70;99.90;;;;;;5064804;28;20036;-77
2022/10/01 12:55:38;;;;;;;2.17;0.40;;;11.70;99.90;;;;;;5062652;28;20033;-77
2022/10/01 12:58:34;;;;;;;2.33;0.30;;;11.70;99.90;;;;;;5065145;28;20361;-77
2022/10/01 13:01:42;;;;;;;1.83;0.40;;;11.70;99.90;;;;;;5071317;28;20044;-76
2022/10/01 13:05:03;;;;;;;1.00;0.60;;;11.80;99.90;;;;;;5063489;28;20031;-76
2022/10/01 13:07:58;;;;;;;1.52;0.65;;;11.80;99.90;;;;;;5013382;28;20120;-77
2022/10/01 13:10:35;;;;;;;5.30;0.82;;;11.80;99.90;;;;;;5069092;28;20383;-78
2022/10/01 13:13:53;;;;;;;2.40;0.70;;;11.80;99.90;;;;;;5070491;28;20079;-78
2022/10/01 13:16:48;;;;;;;0.45;0.30;;;11.90;99.90;;;;;;5080607;28;20091;-78
2022/10/01 13:20:00;;;;;;;0.35;0.20;;;11.90;99.90;;;;;;5072394;28;20029;-79
2022/10/01 13:22:41;;;;;;;2.45;0.30;;;12.00;99.90;;;;;;5006287;28;20030;-78
2022/10/01 13:25:38;;;;;;;1.35;0.70;;;12.00;99.90;;;;;;4996777;28;20030;-76
2022/10/01 13:28:16;;;;;;;3.38;1.27;;;12.00;99.90;;;;;;5063802;28;20044;-78
2022/10/01 13:31:11;;;;;;;4.35;2.05;;;12.00;99.90;;;;;;5060037;28;20387;-78